SESA/SNC METAR and TAF weather

Enter ICAO airport designator
Station Type Date Time Source
SESA METAR 2020/01/23 03:00 UTC NOAA

SESA 230300Z 23010KT 9999 OVC040 26/22 Q1013 RMK A2992


Station Type Date Time Source
SESA Decoded METAR 2020/01/23 03:00 UTC NOAA

Salinas / General Ulpiano Paez, Ecuador (SESA) 02-12S 080-59W 8M
Jan 22, 2020 - 10:00 PM EST / 2020.01.23 0300 UTC
Wind: from the SW (230 degrees) at 12 MPH (10 KT):0
Visibility: greater than 7 mile(s):0
Sky conditions: overcast
Temperature: 78 F (26 C)
Dew Point: 71 F (22 C)
Relative Humidity: 78%
Pressure (altimeter): 29.91 in. Hg (1013 hPa)
ob: SESA 230300Z 23010KT 9999 OVC040 26/22 Q1013 RMK A2992
cycle: 3

Station Type Date Time Source
SESA TAF UTC NOAA

Error!

Example: see airport list